createdAt,value
2023-02-04T00:00:36.971Z,21.60
2023-02-04T00:03:05.017Z,21.60
2023-02-04T00:05:32.953Z,21.60
2023-02-04T00:08:00.743Z,21.60
2023-02-04T00:10:28.682Z,21.60
2023-02-04T00:12:57.945Z,21.60
2023-02-04T00:15:25.728Z,21.60
2023-02-04T00:17:53.581Z,21.60
2023-02-04T00:20:21.415Z,21.60
2023-02-04T00:22:49.229Z,21.60
2023-02-04T00:25:17.006Z,21.60
2023-02-04T00:27:44.789Z,21.60
2023-02-04T00:30:15.326Z,21.60
2023-02-04T00:32:43.128Z,21.60
2023-02-04T00:35:10.863Z,21.60
2023-02-04T00:37:38.538Z,21.60
2023-02-04T00:40:06.903Z,21.60
2023-02-04T00:42:34.637Z,21.50
2023-02-04T00:45:02.336Z,21.60
2023-02-04T00:47:31.921Z,21.60
2023-02-04T00:49:59.664Z,21.60
2023-02-04T00:52:27.371Z,21.60
2023-02-04T00:54:55.056Z,21.60
2023-02-04T00:57:23.288Z,21.60
2023-02-04T00:59:50.978Z,21.60
2023-02-04T01:02:18.775Z,21.60
2023-02-04T01:04:47.863Z,21.60
2023-02-04T01:07:18.928Z,21.60
2023-02-04T01:09:46.652Z,21.60
2023-02-04T01:12:14.409Z,21.60
2023-02-04T01:14:42.468Z,21.60
2023-02-04T01:17:10.769Z,21.60
2023-02-04T01:19:38.464Z,21.60
2023-02-04T01:22:07.512Z,21.60
2023-02-04T01:24:35.245Z,21.60
2023-02-04T01:27:21.811Z,21.60
2023-02-04T01:29:49.719Z,21.60
2023-02-04T01:32:18.119Z,21.60
2023-02-04T01:34:45.848Z,21.60
2023-02-04T01:37:14.890Z,21.60
2023-02-04T01:39:42.697Z,21.60
2023-02-04T01:42:10.843Z,21.60
2023-02-04T01:44:39.340Z,21.60
2023-02-04T01:47:07.555Z,21.60
2023-02-04T01:49:35.375Z,21.60
2023-02-04T01:52:03.616Z,21.60
2023-02-04T01:54:33.169Z,21.60
2023-02-04T01:57:00.960Z,21.60
2023-02-04T01:59:28.740Z,21.60
2023-02-04T02:01:56.591Z,21.60
2023-02-04T02:04:33.291Z,21.60
2023-02-04T02:07:07.241Z,21.60
2023-02-04T02:09:37.637Z,21.60
2023-02-04T02:12:07.277Z,21.60
2023-02-04T02:14:35.075Z,21.60
2023-02-04T02:17:02.836Z,21.60
2023-02-04T02:19:37.304Z,21.60
2023-02-04T02:22:09.560Z,21.60
2023-02-04T02:24:38.604Z,21.60
2023-02-04T02:27:08.873Z,21.60
2023-02-04T02:29:37.408Z,21.60
2023-02-04T02:32:06.062Z,21.60
2023-02-04T02:34:35.367Z,21.60
2023-02-04T02:37:05.234Z,21.60
2023-02-04T02:39:33.221Z,21.60
2023-02-04T02:42:02.894Z,21.60
2023-02-04T02:44:31.277Z,21.60
2023-02-04T02:46:59.707Z,21.60
2023-02-04T02:49:31.465Z,21.60
2023-02-04T02:51:59.234Z,21.60
2023-02-04T02:54:30.942Z,21.60
2023-02-04T02:57:03.266Z,21.60
2023-02-04T02:59:31.000Z,21.60
2023-02-04T03:02:02.834Z,21.60
2023-02-04T03:04:38.685Z,21.60
2023-02-04T03:07:07.744Z,21.60
2023-02-04T03:09:36.468Z,21.60
2023-02-04T03:12:06.685Z,21.60
2023-02-04T03:14:38.185Z,21.60
2023-02-04T03:17:07.553Z,21.60
2023-02-04T03:19:36.318Z,21.60
2023-02-04T03:22:06.067Z,21.60
2023-02-04T03:24:33.928Z,21.60
2023-02-04T03:27:02.102Z,21.60
2023-02-04T03:29:31.175Z,21.60
2023-02-04T03:31:59.954Z,21.60
2023-02-04T03:34:27.820Z,21.60
2023-02-04T03:36:55.505Z,21.60
2023-02-04T03:39:23.208Z,21.60
2023-02-04T03:41:50.877Z,21.60
2023-02-04T03:44:19.486Z,21.60
2023-02-04T03:46:48.509Z,21.60
2023-02-04T03:49:16.212Z,21.60
2023-02-04T03:51:43.937Z,21.60
2023-02-04T03:54:11.713Z,21.60
2023-02-04T03:56:39.433Z,21.60
2023-02-04T03:59:07.375Z,21.60
2023-02-04T04:01:35.220Z,21.60
2023-02-04T04:04:04.288Z,21.60
2023-02-04T04:06:32.356Z,21.60
2023-02-04T04:09:00.065Z,21.60
2023-02-04T04:11:27.929Z,21.60
2023-02-04T04:13:55.655Z,21.60
2023-02-04T04:16:23.867Z,21.60
2023-02-04T04:18:51.569Z,21.60
2023-02-04T04:21:20.616Z,21.60
2023-02-04T04:23:48.452Z,21.60
2023-02-04T04:26:17.246Z,21.50
2023-02-04T04:28:44.946Z,21.60
2023-02-04T04:31:12.801Z,21.60
2023-02-04T04:33:40.645Z,21.60
2023-02-04T04:36:09.346Z,21.60
2023-02-04T04:38:38.494Z,21.60
2023-02-04T04:41:06.317Z,21.60
2023-02-04T04:43:34.006Z,21.60
2023-02-04T04:46:01.701Z,21.60
2023-02-04T04:48:29.376Z,21.60
2023-02-04T04:50:58.200Z,21.60
2023-02-04T04:53:25.975Z,21.60
2023-02-04T04:55:55.060Z,21.60
2023-02-04T04:58:22.770Z,21.60
2023-02-04T05:00:50.502Z,21.60
2023-02-04T05:03:18.200Z,21.60
2023-02-04T05:05:45.924Z,21.60
2023-02-04T05:08:16.778Z,21.60
2023-02-04T05:10:45.000Z,21.60
2023-02-04T05:13:14.071Z,21.60
2023-02-04T05:15:42.328Z,21.60
2023-02-04T05:18:10.091Z,21.60
2023-02-04T05:20:37.794Z,21.60
2023-02-04T05:23:05.939Z,21.60
2023-02-04T05:25:34.164Z,21.60
2023-02-04T05:28:02.018Z,21.60
2023-02-04T05:30:31.588Z,21.60
2023-02-04T05:32:59.389Z,21.60
2023-02-04T05:35:27.123Z,21.60
2023-02-04T05:37:54.826Z,21.60
2023-02-04T05:40:22.833Z,21.50
2023-02-04T05:42:50.541Z,21.50
2023-02-04T05:45:18.934Z,21.50
2023-02-04T05:47:48.277Z,21.50
2023-02-04T05:50:16.566Z,21.50
2023-02-04T05:52:44.256Z,21.50
2023-02-04T05:55:13.430Z,21.50
2023-02-04T05:57:41.171Z,21.60
2023-02-04T06:00:10.513Z,21.50
2023-02-04T06:02:41.063Z,21.50
2023-02-04T06:05:10.268Z,21.50
2023-02-04T06:07:38.006Z,21.50
2023-02-04T06:10:06.262Z,21.60
2023-02-04T06:12:34.061Z,21.50
2023-02-04T06:15:01.747Z,21.50
2023-02-04T06:17:29.428Z,21.60
2023-02-04T06:19:57.123Z,21.60
2023-02-04T06:22:26.738Z,21.50
2023-02-04T06:24:54.492Z,21.60
2023-02-04T06:27:23.983Z,21.50
2023-02-04T06:29:52.134Z,21.50
2023-02-04T06:32:20.481Z,21.50
2023-02-04T06:34:48.240Z,21.50
2023-02-04T06:37:17.073Z,21.60
2023-02-04T06:39:46.113Z,21.50
2023-02-04T06:42:13.918Z,21.50
2023-02-04T06:44:41.663Z,21.50
2023-02-04T06:47:09.496Z,21.50
2023-02-04T06:49:37.211Z,21.50
2023-02-04T06:52:05.601Z,21.50
2023-02-04T06:54:33.368Z,21.50
2023-02-04T06:57:06.627Z,21.50
2023-02-04T06:59:34.680Z,21.50
2023-02-04T07:02:02.925Z,21.50
2023-02-04T07:04:30.738Z,21.60
2023-02-04T07:06:58.416Z,21.50
2023-02-04T07:09:26.251Z,21.50
2023-02-04T07:11:54.010Z,21.60
2023-02-04T07:14:23.037Z,21.50
2023-02-04T07:16:51.107Z,21.50
2023-02-04T07:19:21.095Z,21.50
2023-02-04T07:21:49.014Z,21.50
2023-02-04T07:24:16.697Z,21.60
2023-02-04T07:26:44.416Z,21.60
2023-02-04T07:29:17.629Z,21.50
2023-02-04T07:31:53.310Z,21.50
2023-02-04T07:34:21.423Z,21.60
2023-02-04T07:36:49.237Z,21.50
2023-02-04T07:39:16.997Z,21.60
2023-02-04T07:41:45.193Z,21.50
2023-02-04T07:44:15.238Z,21.50
2023-02-04T07:46:43.009Z,21.50
2023-02-04T07:49:12.111Z,21.60
2023-02-04T07:51:39.800Z,21.50
2023-02-04T07:54:07.484Z,21.60
2023-02-04T07:56:35.243Z,21.60
2023-02-04T07:59:02.952Z,21.60
2023-02-04T08:01:30.690Z,21.60
2023-02-04T08:03:58.394Z,21.60
2023-02-04T08:06:27.717Z,21.60
2023-02-04T08:08:55.644Z,21.60
2023-02-04T08:11:23.380Z,21.60
2023-02-04T08:13:51.074Z,21.60
2023-02-04T08:16:18.967Z,21.60
2023-02-04T08:18:46.964Z,21.60
2023-02-04T08:21:14.678Z,21.60
2023-02-04T08:23:43.684Z,21.70
2023-02-04T08:26:12.374Z,21.70
2023-02-04T08:28:40.256Z,21.70
2023-02-04T08:31:11.693Z,21.70
2023-02-04T08:33:39.772Z,21.70
2023-02-04T08:36:08.420Z,21.70
2023-02-04T08:38:36.279Z,21.70
2023-02-04T08:41:05.835Z,21.70
2023-02-04T08:43:33.532Z,21.70
2023-02-04T08:46:01.261Z,21.70
2023-02-04T08:48:29.033Z,21.70
2023-02-04T08:50:56.738Z,21.70
2023-02-04T08:53:24.444Z,21.70
2023-02-04T08:55:52.173Z,21.70
2023-02-04T08:58:21.179Z,21.70
2023-02-04T09:00:48.928Z,21.70
2023-02-04T09:03:16.675Z,21.70
2023-02-04T09:05:44.376Z,21.70
2023-02-04T09:08:12.128Z,21.70
2023-02-04T09:10:39.835Z,21.70
2023-02-04T09:13:09.116Z,21.70
2023-02-04T09:15:38.231Z,21.70
2023-02-04T09:18:14.486Z,21.70
2023-02-04T09:20:42.168Z,21.70
2023-02-04T09:23:11.962Z,21.70
2023-02-04T09:25:39.956Z,21.70
2023-02-04T09:28:09.969Z,21.70
2023-02-04T09:30:39.640Z,21.70
2023-02-04T09:33:08.055Z,21.70
2023-02-04T09:35:35.830Z,21.70
2023-02-04T09:38:03.789Z,21.80
2023-02-04T09:40:34.679Z,21.80
2023-02-04T09:43:03.616Z,21.80
2023-02-04T09:45:34.778Z,21.80
2023-02-04T09:48:06.406Z,21.80
2023-02-04T09:50:34.949Z,21.80
2023-02-04T09:53:06.142Z,21.80
2023-02-04T09:55:35.719Z,21.80
2023-02-04T09:58:04.129Z,21.80
2023-02-04T10:00:32.803Z,21.90
2023-02-04T10:03:03.190Z,21.90
2023-02-04T10:05:37.082Z,21.90
2023-02-04T10:08:06.349Z,21.90
2023-02-04T10:10:34.547Z,21.90
2023-02-04T10:13:03.755Z,22.00
2023-02-04T10:15:31.512Z,22.00
2023-02-04T10:18:05.360Z,22.00
2023-02-04T10:20:34.951Z,22.00
2023-02-04T10:23:03.016Z,22.00
2023-02-04T10:25:30.706Z,22.00
2023-02-04T10:27:59.963Z,22.00
2023-02-04T10:30:30.229Z,22.00
2023-02-04T10:32:58.126Z,22.10
2023-02-04T10:35:26.144Z,22.10
2023-02-04T10:38:06.924Z,22.10
2023-02-04T10:40:36.659Z,22.10
2023-02-04T10:43:11.075Z,22.10
2023-02-04T10:45:39.593Z,22.10
2023-02-04T10:48:07.897Z,22.10
2023-02-04T10:50:35.616Z,22.10
2023-02-04T10:53:22.204Z,22.10
2023-02-04T10:55:51.245Z,22.10
2023-02-04T10:58:25.212Z,22.10
2023-02-04T11:00:53.046Z,22.10
2023-02-04T11:03:24.223Z,22.10
2023-02-04T11:05:52.846Z,22.00
2023-02-04T11:08:24.976Z,22.00
2023-02-04T11:10:56.669Z,22.00
2023-02-04T11:13:27.196Z,22.00
2023-02-04T11:16:25.318Z,22.00
2023-02-04T11:18:55.763Z,22.00
2023-02-04T11:21:26.966Z,22.00
2023-02-04T11:24:25.427Z,22.00
2023-02-04T11:26:54.550Z,22.00
2023-02-04T11:29:34.666Z,22.00
2023-02-04T11:32:05.185Z,22.00
2023-02-04T11:34:49.144Z,22.00
2023-02-04T11:37:34.956Z,22.00
2023-02-04T11:40:27.246Z,22.00
2023-02-04T11:43:00.384Z,22.00
2023-02-04T11:45:31.047Z,22.00
2023-02-04T11:48:01.627Z,22.00
2023-02-04T11:50:31.975Z,22.00
2023-02-04T11:53:01.769Z,22.00
2023-02-04T11:55:32.935Z,22.00
2023-02-04T11:58:00.879Z,22.00
2023-02-04T12:00:32.174Z,22.00
2023-02-04T12:03:01.739Z,22.10
2023-02-04T12:05:42.313Z,22.10
2023-02-04T12:08:14.846Z,22.10
2023-02-04T12:10:50.746Z,22.10
2023-02-04T12:13:25.344Z,22.20
2023-02-04T12:16:00.131Z,22.20
2023-02-04T12:18:28.706Z,22.30
2023-02-04T12:20:56.912Z,22.30
2023-02-04T12:23:24.929Z,22.30
2023-02-04T12:25:54.437Z,22.30
2023-02-04T12:28:22.707Z,22.40
2023-02-04T12:30:50.477Z,22.40
2023-02-04T12:33:18.289Z,22.40
2023-02-04T12:35:46.036Z,22.40
2023-02-04T12:38:13.780Z,22.40
2023-02-04T12:40:41.528Z,22.40
2023-02-04T12:43:10.614Z,22.50
2023-02-04T12:45:39.940Z,22.50
2023-02-04T12:48:07.725Z,22.50
2023-02-04T12:50:35.441Z,22.50
2023-02-04T12:53:04.035Z,22.50
2023-02-04T12:55:31.993Z,22.50
2023-02-04T12:58:00.143Z,22.50
2023-02-04T13:00:29.273Z,22.50
2023-02-04T13:02:58.967Z,22.50
2023-02-04T13:05:27.018Z,22.50
2023-02-04T13:07:55.195Z,22.50
2023-02-04T13:10:23.893Z,22.50
2023-02-04T13:12:51.635Z,22.50
2023-02-04T13:15:19.740Z,22.50
2023-02-04T13:17:49.054Z,22.40
2023-02-04T13:20:16.799Z,22.40
2023-02-04T13:22:44.549Z,22.40
2023-02-04T13:25:12.539Z,22.40
2023-02-04T13:27:40.482Z,22.40
2023-02-04T13:30:12.289Z,22.40
2023-02-04T13:32:40.884Z,22.30
2023-02-04T13:35:10.120Z,22.30
2023-02-04T13:37:38.501Z,22.30
2023-02-04T13:40:07.659Z,22.30
2023-02-04T13:42:35.373Z,22.30
2023-02-04T13:45:03.244Z,22.30
2023-02-04T13:47:30.944Z,22.30
2023-02-04T13:49:58.659Z,22.30
2023-02-04T13:52:27.728Z,22.30
2023-02-04T13:54:56.528Z,22.20
2023-02-04T13:57:24.246Z,22.20
2023-02-04T13:59:51.978Z,22.20
2023-02-04T14:02:21.141Z,22.20
2023-02-04T14:04:48.862Z,22.20
2023-02-04T14:07:16.532Z,22.20
2023-02-04T14:09:48.089Z,22.20
2023-02-04T14:12:15.893Z,22.20
2023-02-04T14:14:43.604Z,22.10
2023-02-04T14:17:11.309Z,22.10
2023-02-04T14:19:39.024Z,22.10
2023-02-04T14:22:07.675Z,22.10
2023-02-04T14:24:35.550Z,22.10
2023-02-04T14:27:07.282Z,22.10
2023-02-04T14:29:35.015Z,22.10
2023-02-04T14:32:03.144Z,22.20
2023-02-04T14:34:30.868Z,22.20
2023-02-04T14:36:58.620Z,22.20
2023-02-04T14:39:26.408Z,22.20
2023-02-04T14:41:54.160Z,22.20
2023-02-04T14:44:23.193Z,22.10
2023-02-04T14:46:51.014Z,22.10
2023-02-04T14:49:18.852Z,22.20
2023-02-04T14:51:46.553Z,22.20
2023-02-04T14:54:14.978Z,22.20
2023-02-04T14:56:44.450Z,22.20
2023-02-04T14:59:12.137Z,22.10
2023-02-04T15:01:42.232Z,22.10
2023-02-04T15:04:12.012Z,22.10
2023-02-04T15:06:40.036Z,22.10
2023-02-04T15:09:07.766Z,22.10
2023-02-04T15:11:35.503Z,22.10
2023-02-04T15:14:03.239Z,22.10
2023-02-04T15:16:31.250Z,22.10
2023-02-04T15:19:00.401Z,22.00
2023-02-04T15:21:28.249Z,22.00
2023-02-04T15:23:56.009Z,22.00
2023-02-04T15:26:24.962Z,22.00
2023-02-04T15:28:52.673Z,22.00
2023-02-04T15:31:20.515Z,22.00
2023-02-04T15:33:48.287Z,22.00
2023-02-04T15:36:17.361Z,22.00
2023-02-04T15:38:45.560Z,22.00
2023-02-04T15:41:13.270Z,22.00
2023-02-04T15:43:40.972Z,22.00
2023-02-04T15:46:08.763Z,22.00
2023-02-04T15:48:36.640Z,22.00
2023-02-04T15:51:04.480Z,22.00
2023-02-04T15:53:34.677Z,22.00
2023-02-04T15:56:02.894Z,22.00
2023-02-04T15:58:30.627Z,22.00
2023-02-04T16:00:58.378Z,22.00
2023-02-04T16:03:26.184Z,22.10
2023-02-04T16:05:55.320Z,22.00
2023-02-04T16:08:23.051Z,22.00
2023-02-04T16:10:53.983Z,22.00
2023-02-04T16:13:21.863Z,22.00
2023-02-04T16:15:49.576Z,22.00
2023-02-04T16:18:17.288Z,22.00
2023-02-04T16:20:45.006Z,22.00
2023-02-04T16:23:12.697Z,22.00
2023-02-04T16:25:40.458Z,22.00
2023-02-04T16:28:09.542Z,22.00
2023-02-04T16:30:39.214Z,22.00
2023-02-04T16:33:07.988Z,22.00
2023-02-04T16:35:57.891Z,22.00
2023-02-04T16:38:25.768Z,22.00
2023-02-04T16:40:53.483Z,22.00
2023-02-04T16:43:23.070Z,22.00
2023-02-04T16:45:51.777Z,22.00
2023-02-04T16:48:19.522Z,22.00
2023-02-04T16:50:47.252Z,22.00
2023-02-04T16:53:16.072Z,21.90
2023-02-04T16:55:44.349Z,21.90
2023-02-04T16:58:12.209Z,21.90
2023-02-04T17:00:42.147Z,21.90
2023-02-04T17:03:10.271Z,21.90
2023-02-04T17:05:38.208Z,21.90
2023-02-04T17:08:06.627Z,21.90
2023-02-04T17:10:52.366Z,21.90
2023-02-04T17:13:20.221Z,21.90
2023-02-04T17:15:49.302Z,21.90
2023-02-04T17:18:17.014Z,21.90
2023-02-04T17:20:44.714Z,21.90
2023-02-04T17:23:12.438Z,21.90
2023-02-04T17:25:40.148Z,21.90
2023-02-04T17:28:07.933Z,21.90
2023-02-04T17:30:35.698Z,21.90
2023-02-04T17:33:04.856Z,21.90
2023-02-04T17:35:33.236Z,21.80
2023-02-04T17:38:01.254Z,21.80
2023-02-04T17:40:29.066Z,21.80
2023-02-04T17:42:58.316Z,21.80
2023-02-04T17:45:26.068Z,21.80
2023-02-04T17:47:53.769Z,21.80
2023-02-04T17:50:22.923Z,21.80
2023-02-04T17:52:51.316Z,21.80
2023-02-04T17:55:24.004Z,21.80
2023-02-04T17:57:52.117Z,21.80
2023-02-04T18:00:23.344Z,21.80
2023-02-04T18:02:52.867Z,21.80
2023-02-04T18:05:24.175Z,21.80
2023-02-04T18:07:57.283Z,21.80
2023-02-04T18:10:31.832Z,21.80
2023-02-04T18:13:00.556Z,21.80
2023-02-04T18:15:30.709Z,21.80
2023-02-04T18:18:03.487Z,21.80
2023-02-04T18:20:32.688Z,21.80
2023-02-04T18:23:04.293Z,21.80
2023-02-04T18:25:33.336Z,21.80
2023-02-04T18:28:07.653Z,21.80
2023-02-04T18:30:35.700Z,21.80
2023-02-04T18:33:12.881Z,21.80
2023-02-04T18:35:47.029Z,21.80
2023-02-04T18:38:26.050Z,21.80
2023-02-04T18:41:01.885Z,21.90
2023-02-04T18:43:32.840Z,21.90
2023-02-04T18:46:07.251Z,21.90
2023-02-04T18:48:59.723Z,21.90
2023-02-04T18:51:32.078Z,21.90
2023-02-04T18:54:03.146Z,21.90
2023-02-04T18:56:37.438Z,21.90
2023-02-04T18:59:15.870Z,21.90
2023-02-04T19:01:44.461Z,21.90
2023-02-04T19:04:20.651Z,21.90
2023-02-04T19:06:52.168Z,21.90
2023-02-04T19:09:24.918Z,21.90
2023-02-04T19:11:54.041Z,21.90
2023-02-04T19:14:25.561Z,21.90
2023-02-04T19:16:54.865Z,21.90
2023-02-04T19:19:37.085Z,21.90
2023-02-04T19:22:32.478Z,21.90
2023-02-04T19:25:02.645Z,21.90
2023-02-04T19:27:34.131Z,21.90
2023-02-04T19:30:20.912Z,21.90
2023-02-04T19:32:53.391Z,21.90
2023-02-04T19:35:24.080Z,21.90
2023-02-04T19:37:56.002Z,21.90
2023-02-04T19:40:30.911Z,21.90
2023-02-04T19:43:15.158Z,21.90
2023-02-04T19:45:43.370Z,21.90
2023-02-04T19:48:21.109Z,21.90
2023-02-04T19:50:51.413Z,21.90
2023-02-04T19:53:22.326Z,21.90
2023-02-04T19:55:52.427Z,21.90
2023-02-04T19:58:22.316Z,21.90
2023-02-04T20:01:10.384Z,21.90
2023-02-04T20:03:41.940Z,21.90
2023-02-04T20:06:29.989Z,21.90
2023-02-04T20:09:00.702Z,21.90
2023-02-04T20:11:55.724Z,21.90
2023-02-04T20:14:27.995Z,21.90
2023-02-04T20:16:58.363Z,21.90
2023-02-04T20:19:29.578Z,21.90
2023-02-04T20:22:16.716Z,21.90
2023-02-04T20:24:47.504Z,21.90
2023-02-04T20:27:20.686Z,21.90
2023-02-04T20:29:48.970Z,21.90
2023-02-04T20:32:21.164Z,21.90
2023-02-04T20:34:48.858Z,21.90
2023-02-04T20:37:23.666Z,21.90
2023-02-04T20:39:52.722Z,21.90
2023-02-04T20:42:30.243Z,21.90
2023-02-04T20:45:10.423Z,21.90
2023-02-04T20:47:38.395Z,21.90
2023-02-04T20:50:38.715Z,21.90
2023-02-04T20:53:19.966Z,21.90
2023-02-04T20:55:51.466Z,21.90
2023-02-04T20:58:21.505Z,21.80
2023-02-04T21:00:52.484Z,21.80
2023-02-04T21:03:26.457Z,21.80
2023-02-04T21:05:55.363Z,21.80
2023-02-04T21:08:29.427Z,21.80
2023-02-04T21:10:59.543Z,21.80
2023-02-04T21:13:27.493Z,21.80
2023-02-04T21:15:55.317Z,21.80
2023-02-04T21:18:23.236Z,21.80
2023-02-04T21:20:51.026Z,21.80
2023-02-04T21:23:19.671Z,21.80
2023-02-04T21:25:47.413Z,21.80
2023-02-04T21:28:16.541Z,21.80
2023-02-04T21:30:44.379Z,21.80
2023-02-04T21:33:12.235Z,21.70
2023-02-04T21:35:40.295Z,21.70
2023-02-04T21:38:08.581Z,21.70
2023-02-04T21:40:38.237Z,21.70
2023-02-04T21:43:08.052Z,21.70
2023-02-04T21:45:39.480Z,21.70
2023-02-04T21:48:08.614Z,21.70
2023-02-04T21:50:38.249Z,21.70
2023-02-04T21:53:06.471Z,21.70
2023-02-04T21:55:34.767Z,21.70
2023-02-04T21:58:02.946Z,21.70
2023-02-04T22:00:30.713Z,21.70
2023-02-04T22:02:59.909Z,21.70
2023-02-04T22:05:27.834Z,21.70
2023-02-04T22:07:55.647Z,21.70
2023-02-04T22:10:25.389Z,21.70
2023-02-04T22:12:53.388Z,21.70
2023-02-04T22:15:24.531Z,21.70
2023-02-04T22:17:53.995Z,21.70
2023-02-04T22:20:25.374Z,21.70
2023-02-04T22:22:53.716Z,21.70
2023-02-04T22:25:22.196Z,21.70
2023-02-04T22:27:50.157Z,21.70
2023-02-04T22:30:19.007Z,21.70
2023-02-04T22:32:46.788Z,21.70
2023-02-04T22:35:15.008Z,21.70
2023-02-04T22:37:44.259Z,21.70
2023-02-04T22:40:13.699Z,21.70
2023-02-04T22:42:41.497Z,21.70
2023-02-04T22:45:11.091Z,21.70
2023-02-04T22:47:39.021Z,21.70
2023-02-04T22:50:08.847Z,21.70
2023-02-04T22:52:36.629Z,21.70
2023-02-04T22:55:06.288Z,21.70
2023-02-04T22:57:34.000Z,21.70
2023-02-04T23:00:01.730Z,21.70
2023-02-04T23:02:29.450Z,21.70
2023-02-04T23:04:57.185Z,21.70
2023-02-04T23:07:24.948Z,21.70
2023-02-04T23:09:52.737Z,21.70
2023-02-04T23:12:21.778Z,21.70
2023-02-04T23:14:49.899Z,21.70
2023-02-04T23:17:19.093Z,21.70
2023-02-04T23:19:46.902Z,21.70
2023-02-04T23:22:15.621Z,21.70
2023-02-04T23:24:43.640Z,21.70
2023-02-04T23:27:11.908Z,21.70
2023-02-04T23:29:41.363Z,21.70
2023-02-04T23:32:09.975Z,21.70
2023-02-04T23:34:38.067Z,21.70
2023-02-04T23:37:05.849Z,21.70
2023-02-04T23:39:33.720Z,21.70
2023-02-04T23:42:01.722Z,21.70
2023-02-04T23:44:29.736Z,21.70
2023-02-04T23:46:58.913Z,21.70
2023-02-04T23:49:26.773Z,21.80
2023-02-04T23:51:54.520Z,21.80
2023-02-04T23:54:23.526Z,21.70
2023-02-04T23:56:51.943Z,21.70
2023-02-04T23:59:19.882Z,21.70
